Time;durP1;ratioP1;P1;durP2;ratioP2;P2;SDS_P1;SDS_P2;PMS_P1;PMS_P2;Temp;Humidity;BMP_temperature;BMP_pressure;BME280_temperature;BME280_humidity;BME280_pressure;Samples;Min_cycle;Max_cycle;Signal;HPM_P1;HPM_P2
2022/10/21 00:02:03;;;;;;;14.48;3.42;;;;;;;14.73;100.00;99257.22;5033068;28;20421;-75
2022/10/21 00:04:28;;;;;;;14.50;3.38;;;;;;;14.70;100.00;99252.34;5016506;28;20049;-75
2022/10/21 00:06:54;;;;;;;12.80;3.00;;;;;;;14.70;100.00;99252.34;5000100;28;20045;-75
2022/10/21 00:09:19;;;;;;;7.38;3.35;;;;;;;14.67;100.00;99267.81;5016608;28;20026;-75
2022/10/21 00:11:45;;;;;;;9.48;3.28;;;;;;;14.63;100.00;99263.31;5021745;28;20470;-75
2022/10/21 00:14:10;;;;;;;12.75;3.30;;;;;;;14.63;100.00;99269.72;5010823;28;20049;-75
2022/10/21 00:16:36;;;;;;;8.50;3.63;;;;;;;14.62;100.00;99261.66;5029617;28;20390;-75
2022/10/21 00:19:01;;;;;;;13.50;3.55;;;;;;;14.57;100.00;99251.56;5039187;28;20086;-75
2022/10/21 00:21:27;;;;;;;14.48;3.30;;;;;;;14.53;100.00;99257.00;5000150;28;20040;-75
2022/10/21 00:23:52;;;;;;;11.07;3.72;;;;;;;14.48;100.00;99251.63;4999762;28;20029;-75
2022/10/21 00:26:18;;;;;;;10.25;3.20;;;;;;;14.49;100.00;99258.88;5016154;28;20025;-75
2022/10/21 00:28:43;;;;;;;9.43;3.42;;;;;;;14.48;100.00;99265.59;5019704;28;20092;-75
2022/10/21 00:31:09;;;;;;;14.68;3.58;;;;;;;14.46;100.00;99265.16;4993665;28;20037;-75
2022/10/21 00:33:35;;;;;;;11.25;3.13;;;;;;;14.46;100.00;99269.94;5009823;28;20060;-75
2022/10/21 00:36:01;;;;;;;9.32;3.20;;;;;;;14.45;100.00;99268.28;5005309;28;20049;-75
2022/10/21 00:38:28;;;;;;;9.98;2.85;;;;;;;14.41;100.00;99270.16;4986333;28;20064;-75
2022/10/21 00:40:53;;;;;;;10.27;2.88;;;;;;;14.40;100.00;99272.16;5015807;28;20393;-75
2022/10/21 00:43:19;;;;;;;10.32;3.25;;;;;;;14.38;100.00;99265.28;4999457;28;20104;-75
2022/10/21 00:45:45;;;;;;;9.77;3.13;;;;;;;14.30;100.00;99275.41;4985816;28;20087;-75
2022/10/21 00:48:21;;;;;;;12.35;3.20;;;;;;;14.33;100.00;99269.13;5002982;28;20075;-75
2022/10/21 00:50:54;;;;;;;9.70;3.55;;;;;;;14.32;100.00;99261.91;5033239;28;20033;-75
2022/10/21 00:53:19;;;;;;;17.45;3.45;;;;;;;14.30;100.00;99262.25;4999534;28;20034;-75
2022/10/21 00:55:48;;;;;;;18.60;3.20;;;;;;;14.26;100.00;99264.13;5015485;28;20509;-75
2022/10/21 00:58:14;;;;;;;13.80;3.40;;;;;;;14.25;100.00;99261.66;5029654;28;20040;-75
2022/10/21 01:00:40;;;;;;;9.77;3.17;;;;;;;14.23;100.00;99269.56;5025406;28;20032;-75
2022/10/21 01:03:05;;;;;;;11.23;3.63;;;;;;;14.21;100.00;99278.31;5019906;28;20034;-76
2022/10/21 01:05:30;;;;;;;12.77;3.35;;;;;;;14.20;100.00;99281.44;4999709;28;20674;-75
2022/10/21 01:07:56;;;;;;;11.43;3.05;;;;;;;14.17;100.00;99270.97;5026758;28;20446;-75
2022/10/21 01:10:21;;;;;;;11.82;3.38;;;;;;;14.16;100.00;99272.13;5015932;28;20033;-75
2022/10/21 01:13:06;;;;;;;15.52;3.97;;;;;;;14.17;100.00;99279.34;5021698;28;20033;-75
2022/10/21 01:15:53;;;;;;;16.67;3.58;;;;;;;14.13;100.00;99281.22;5039287;28;20041;-74
2022/10/21 01:18:18;;;;;;;12.68;3.50;;;;;;;14.12;100.00;99279.56;5041086;28;20120;-75
2022/10/21 01:21:08;;;;;;;12.98;3.15;;;;;;;14.11;100.00;99281.56;5040790;28;20076;-75
2022/10/21 01:23:56;;;;;;;13.23;3.28;;;;;;;14.09;100.00;99273.50;5047963;28;20037;-75
2022/10/21 01:26:25;;;;;;;9.35;2.85;;;;;;;14.08;100.00;99263.50;5037343;28;20040;-75
2022/10/21 01:29:12;;;;;;;11.57;3.33;;;;;;;14.09;100.00;99262.34;5015021;28;20096;-75
2022/10/21 01:31:43;;;;;;;10.95;3.13;;;;;;;14.07;100.00;99267.47;5045175;28;20443;-74
2022/10/21 01:34:12;;;;;;;12.85;2.78;;;;;;;14.05;100.00;99269.78;5039913;28;20030;-74
2022/10/21 01:36:47;;;;;;;14.05;3.05;;;;;;;14.05;100.00;99263.41;5015411;28;20034;-75
2022/10/21 01:39:21;;;;;;;12.68;3.03;;;;;;;14.05;100.00;99266.19;5028065;28;20041;-75
2022/10/21 01:41:49;;;;;;;12.63;3.00;;;;;;;14.06;100.00;99256.66;5046318;28;20029;-75
2022/10/21 01:44:22;;;;;;;13.93;3.58;;;;;;;14.09;100.00;99250.38;5036342;28;20521;-75
2022/10/21 01:46:50;;;;;;;10.38;3.20;;;;;;;14.07;100.00;99245.16;5008886;28;20060;-75
2022/10/21 01:49:31;;;;;;;19.52;3.47;;;;;;;14.07;100.00;99236.78;5027942;28;20037;-75
2022/10/21 01:51:57;;;;;;;12.35;3.08;;;;;;;14.09;100.00;99233.63;5015446;28;20029;-76
2022/10/21 01:54:28;;;;;;;14.10;3.03;;;;;;;14.09;100.00;99239.19;4999485;28;20029;-75
2022/10/21 01:56:53;;;;;;;12.02;2.65;;;;;;;14.06;100.00;99239.91;5007696;28;20038;-75
2022/10/21 01:59:18;;;;;;;9.20;2.72;;;;;;;14.09;100.00;99250.38;5028119;28;20030;-75
2022/10/21 02:01:44;;;;;;;13.05;2.85;;;;;;;14.06;100.00;99249.09;5014225;28;20063;-75
2022/10/21 02:04:09;;;;;;;10.68;2.70;;;;;;;14.08;100.00;99235.59;4998483;28;20030;-75
2022/10/21 02:06:35;;;;;;;12.63;3.35;;;;;;;14.08;100.00;99230.00;4998087;28;20057;-76
2022/10/21 02:09:00;;;;;;;12.15;2.60;;;;;;;14.08;100.00;99230.00;5021603;28;20033;-76
2022/10/21 02:11:26;;;;;;;12.10;2.97;;;;;;;14.06;100.00;99226.75;5011485;28;20038;-75
2022/10/21 02:13:59;;;;;;;9.20;3.08;;;;;;;14.09;100.00;99236.41;4999119;28;20030;-75
2022/10/21 02:16:27;;;;;;;13.45;3.05;;;;;;;14.11;100.00;99216.53;5024321;28;20045;-75
2022/10/21 02:18:54;;;;;;;14.00;3.00;;;;;;;14.08;100.00;99216.06;5028644;28;20039;-75
2022/10/21 02:21:20;;;;;;;12.00;3.10;;;;;;;14.09;100.00;99220.47;4987223;28;20051;-75
2022/10/21 02:23:53;;;;;;;10.57;3.30;;;;;;;14.06;100.00;99232.34;5018496;28;20026;-75
2022/10/21 02:26:22;;;;;;;15.07;3.13;;;;;;;14.04;100.00;99229.09;5037669;28;20071;-75
2022/10/21 02:28:47;;;;;;;10.55;2.90;;;;;;;14.06;100.00;99226.75;5032251;28;20031;-75
2022/10/21 02:31:19;;;;;;;12.63;3.38;;;;;;;14.05;100.00;99225.13;5007990;28;20046;-75
2022/10/21 02:33:58;;;;;;;12.63;3.03;;;;;;;14.05;100.00;99230.72;5045561;28;20059;-76
2022/10/21 02:37:02;;;;;;;11.95;2.97;;;;;;;14.03;100.00;99233.03;5037962;28;20025;-75
2022/10/21 02:39:32;;;;;;;11.57;3.33;;;;;;;14.03;100.00;99221.06;5047097;28;20090;-75
2022/10/21 02:41:58;;;;;;;12.07;3.10;;;;;;;14.02;100.00;99213.84;5030706;28;20032;-75
2022/10/21 02:44:23;;;;;;;8.65;2.78;;;;;;;14.01;100.00;99213.06;5011450;28;20029;-76
2022/10/21 02:46:49;;;;;;;9.57;2.67;;;;;;;14.01;100.00;99210.25;5017390;28;20033;-75
2022/10/21 02:49:14;;;;;;;13.68;2.70;;;;;;;14.00;100.00;99202.22;4999299;28;20037;-76
2022/10/21 02:51:40;;;;;;;11.88;3.00;;;;;;;14.00;100.00;99205.81;5030240;28;20036;-75
2022/10/21 02:54:05;;;;;;;9.77;2.83;;;;;;;13.99;100.00;99198.63;5008076;28;20062;-75
2022/10/21 02:56:31;;;;;;;12.20;2.70;;;;;;;14.00;100.00;99200.22;5002001;28;20037;-76
2022/10/21 02:58:56;;;;;;;12.98;2.90;;;;;;;13.96;100.00;99193.75;5004113;28;20363;-76
2022/10/21 03:01:22;;;;;;;12.48;2.40;;;;;;;13.97;100.00;99205.72;5013851;28;20029;-75
2022/10/21 03:03:47;;;;;;;12.73;3.30;;;;;;;13.96;100.00;99202.09;4980154;28;20026;-76
2022/10/21 03:06:13;;;;;;;12.52;2.50;;;;;;;13.94;100.00;99201.63;4996090;28;20072;-76
2022/10/21 03:08:38;;;;;;;8.95;2.13;;;;;;;13.94;100.00;99192.44;5027460;28;20033;-76
2022/10/21 03:11:04;;;;;;;10.85;2.97;;;;;;;13.91;100.00;99188.38;5013748;28;20048;-76
2022/10/21 03:13:29;;;;;;;11.52;2.50;;;;;;;13.91;100.00;99191.16;4989654;28;20028;-75
2022/10/21 03:15:55;;;;;;;9.20;2.10;;;;;;;13.87;100.00;99190.22;5001275;28;20037;-75
2022/10/21 03:18:20;;;;;;;7.40;1.98;;;;;;;13.85;100.00;99187.00;5016362;28;20033;-75
2022/10/21 03:20:49;;;;;;;9.85;2.38;;;;;;;13.83;100.00;99189.31;5015985;28;20029;-76
2022/10/21 03:23:18;;;;;;;9.30;2.35;;;;;;;13.83;100.00;99186.50;5033938;28;20098;-75
2022/10/21 03:25:44;;;;;;;11.68;2.38;;;;;;;13.78;100.00;99181.16;4991691;28;20053;-76
2022/10/21 03:28:09;;;;;;;8.82;1.88;;;;;;;13.79;100.00;99189.19;5019319;28;20034;-76
2022/10/21 03:30:35;;;;;;;12.00;2.10;;;;;;;13.78;100.00;99181.16;5036666;28;20091;-76
2022/10/21 03:33:00;;;;;;;11.57;2.28;;;;;;;13.76;100.00;99194.63;5033459;28;20036;-76
2022/10/21 03:35:26;;;;;;;7.35;2.17;;;;;;;13.74;100.00;99191.41;5000963;28;20088;-76
2022/10/21 03:37:52;;;;;;;12.05;2.53;;;;;;;13.72;100.00;99188.13;5016546;28;20030;-75
2022/10/21 03:40:17;;;;;;;7.68;1.90;;;;;;;13.68;100.00;99195.56;5000472;28;20049;-75
2022/10/21 03:42:42;;;;;;;9.05;1.90;;;;;;;13.69;100.00;99186.84;5019236;28;20560;-75
2022/10/21 03:45:08;;;;;;;10.38;2.20;;;;;;;13.66;100.00;99187.56;5023553;28;20477;-75
2022/10/21 03:47:34;;;;;;;9.85;2.40;;;;;;;13.66;100.00;99181.97;5006750;28;20029;-75
2022/10/21 03:49:59;;;;;;;10.73;2.05;;;;;;;13.63;100.00;99194.63;5030235;28;20040;-75
2022/10/21 03:52:25;;;;;;;12.80;2.72;;;;;;;13.61;100.00;99191.38;5006723;28;20112;-75
2022/10/21 03:54:50;;;;;;;9.52;1.92;;;;;;;13.61;100.00;99196.94;5029360;28;20025;-75
2022/10/21 03:57:16;;;;;;;13.05;2.50;;;;;;;13.58;100.00;99194.03;4993925;28;20033;-75
2022/10/21 03:59:41;;;;;;;13.88;2.33;;;;;;;13.56;100.00;99194.38;5046459;28;20075;-75
2022/10/21 04:02:07;;;;;;;8.88;1.92;;;;;;;13.56;100.00;99196.34;5015692;28;20029;-75
2022/10/21 04:04:32;;;;;;;15.27;2.28;;;;;;;13.55;100.00;99200.31;4971316;28;20026;-75
2022/10/21 04:06:58;;;;;;;5.80;1.80;;;;;;;13.54;100.00;99193.09;5030311;28;20050;-75
2022/10/21 04:09:23;;;;;;;7.05;1.70;;;;;;;13.51;100.00;99189.03;5012619;28;20038;-75
2022/10/21 04:11:48;;;;;;;14.20;2.05;;;;;;;13.51;100.00;99189.03;5005413;28;20467;-75
2022/10/21 04:14:14;;;;;;;9.93;1.92;;;;;;;13.49;100.00;99196.13;5010306;28;20029;-75
2022/10/21 04:16:39;;;;;;;14.25;1.90;;;;;;;13.48;100.00;99198.06;5000562;28;20036;-75
2022/10/21 04:19:05;;;;;;;6.93;1.98;;;;;;;13.47;100.00;99212.38;5026424;28;20037;-76
2022/10/21 04:21:30;;;;;;;9.60;2.15;;;;;;;13.46;100.00;99211.56;4987774;28;20032;-76
2022/10/21 04:23:56;;;;;;;7.25;1.50;;;;;;;13.45;100.00;99212.72;4988590;28;20019;-75
2022/10/21 04:26:21;;;;;;;9.98;2.15;;;;;;;13.44;100.00;99208.31;4999791;28;20026;-75
2022/10/21 04:28:47;;;;;;;11.52;2.13;;;;;;;13.44;100.00;99213.06;5019989;28;20034;-76
2022/10/21 04:31:12;;;;;;;7.82;1.45;;;;;;;13.42;100.00;99210.63;5000760;28;20033;-76
2022/10/21 04:33:38;;;;;;;9.80;1.80;;;;;;;13.43;100.00;99206.69;4998658;28;20049;-76
2022/10/21 04:36:04;;;;;;;15.20;1.85;;;;;;;13.42;100.00;99202.25;5029847;28;20398;-75
2022/10/21 04:38:29;;;;;;;12.63;2.25;;;;;;;13.40;100.00;99210.97;5011838;28;20034;-75
2022/10/21 04:40:58;;;;;;;11.93;2.17;;;;;;;13.38;100.00;99206.91;4981554;28;20060;-75
2022/10/21 04:43:23;;;;;;;11.95;1.63;;;;;;;13.37;100.00;99219.19;5031255;28;20433;-75
2022/10/21 04:45:49;;;;;;;11.80;1.80;;;;;;;13.37;100.00;99220.03;5048360;28;20106;-75
2022/10/21 04:48:14;;;;;;;12.60;2.33;;;;;;;13.36;100.00;99223.16;5003642;28;20034;-75
2022/10/21 04:50:40;;;;;;;8.98;1.67;;;;;;;13.37;100.00;99227.56;5026945;28;20387;-75
2022/10/21 04:53:05;;;;;;;8.77;1.85;;;;;;;13.32;100.00;99230.59;5026710;28;20029;-76
2022/10/21 04:55:31;;;;;;;11.45;1.83;;;;;;;13.33;100.00;99221.06;4989724;28;20124;-75
2022/10/21 04:57:56;;;;;;;9.20;1.50;;;;;;;13.31;100.00;99226.16;4999673;28;20044;-76
2022/10/21 05:00:22;;;;;;;10.55;1.80;;;;;;;13.31;100.00;99217.78;5027223;28;20028;-75
2022/10/21 05:02:47;;;;;;;9.13;1.52;;;;;;;13.28;100.00;99219.28;4983239;28;20044;-76
2022/10/21 05:05:13;;;;;;;9.32;2.00;;;;;;;13.28;100.00;99226.84;5012304;28;20025;-75
2022/10/21 05:07:38;;;;;;;10.52;1.80;;;;;;;13.26;100.00;99232.78;5021345;28;20049;-76
2022/10/21 05:10:04;;;;;;;8.52;1.58;;;;;;;13.27;100.00;99241.97;5009880;28;20036;-75
2022/10/21 05:12:29;;;;;;;5.53;1.20;;;;;;;13.27;100.00;99234.41;5001625;28;20038;-75
2022/10/21 05:14:55;;;;;;;8.20;1.88;;;;;;;13.26;100.00;99238.34;5024546;28;20034;-75
2022/10/21 05:17:20;;;;;;;9.98;2.28;;;;;;;13.23;100.00;99241.78;5024040;28;20040;-75
2022/10/21 05:19:46;;;;;;;9.38;1.60;;;;;;;13.21;100.00;99230.16;5025125;28;20036;-76
2022/10/21 05:22:11;;;;;;;10.15;2.00;;;;;;;13.22;100.00;99230.97;5024140;28;20195;-74
2022/10/21 05:24:37;;;;;;;5.22;1.63;;;;;;;13.21;100.00;99232.97;5025319;28;20032;-74
2022/10/21 05:27:02;;;;;;;8.05;1.50;;;;;;;13.18;100.00;99228.88;4997699;28;20384;-75
2022/10/21 05:29:28;;;;;;;12.93;2.22;;;;;;;13.18;100.00;99223.31;4982277;28;20032;-74
2022/10/21 05:31:53;;;;;;;7.90;1.52;;;;;;;13.17;100.00;99224.44;5027911;28;20033;-75
2022/10/21 05:34:19;;;;;;;15.25;2.05;;;;;;;13.15;100.00;99229.56;5013945;28;20516;-75
2022/10/21 05:36:46;;;;;;;11.10;1.50;;;;;;;13.14;100.00;99230.72;5008360;28;20090;-75
2022/10/21 05:39:12;;;;;;;8.30;1.60;;;;;;;13.11;100.00;99236.97;5009152;28;20039;-75
2022/10/21 05:41:37;;;;;;;6.90;1.30;;;;;;;13.09;100.00;99242.09;4998378;28;20034;-75
2022/10/21 05:44:03;;;;;;;9.85;1.45;;;;;;;13.08;100.00;99248.81;4998596;28;20025;-75
2022/10/21 05:46:28;;;;;;;9.45;1.80;;;;;;;13.06;100.00;99245.53;5039753;28;20064;-75
2022/10/21 05:48:54;;;;;;;7.82;1.55;;;;;;;13.04;100.00;99241.47;5008722;28;20035;-75
2022/10/21 05:51:25;;;;;;;11.02;1.63;;;;;;;13.05;100.00;99238.34;5053962;28;20025;-75
2022/10/21 05:53:51;;;;;;;10.60;1.77;;;;;;;13.02;100.00;99252.97;5009861;28;20084;-74
2022/10/21 05:56:17;;;;;;;8.90;1.60;;;;;;;12.97;100.00;99253.97;5010843;28;20072;-75
2022/10/21 05:58:42;;;;;;;9.75;2.03;;;;;;;12.98;100.00;99254.78;5029129;28;20033;-75
2022/10/21 06:01:07;;;;;;;11.52;1.77;;;;;;;13.00;100.00;99254.47;5030175;28;20026;-75
2022/10/21 06:03:33;;;;;;;7.38;1.48;;;;;;;12.96;100.00;99266.28;4989219;28;20030;-75
2022/10/21 06:06:02;;;;;;;10.63;1.63;;;;;;;12.93;100.00;99261.41;4981042;28;20042;-76
2022/10/21 06:08:28;;;;;;;10.18;1.30;;;;;;;12.94;100.00;99265.81;4992648;28;20050;-75
2022/10/21 06:11:03;;;;;;;10.45;1.70;;;;;;;12.95;100.00;99261.03;5021780;28;20029;-76
2022/10/21 06:13:29;;;;;;;8.82;1.48;;;;;;;12.94;100.00;99270.56;5018253;28;20042;-75
2022/10/21 06:15:55;;;;;;;10.05;2.22;;;;;;;12.91;100.00;99265.69;5024732;28;20500;-75
2022/10/21 06:18:20;;;;;;;12.65;1.88;;;;;;;12.90;100.00;99270.44;5004770;28;20179;-75
2022/10/21 06:20:46;;;;;;;10.15;2.00;;;;;;;12.90;100.00;99264.88;5009166;28;20029;-76
2022/10/21 06:23:14;;;;;;;12.48;1.90;;;;;;;12.88;100.00;99272.75;5004557;28;20041;-75
2022/10/21 06:25:39;;;;;;;14.10;1.83;;;;;;;12.88;100.00;99271.94;5020496;28;20037;-75
2022/10/21 06:28:05;;;;;;;10.23;1.65;;;;;;;12.87;100.00;99270.28;4998747;28;20030;-74
2022/10/21 06:30:30;;;;;;;11.98;2.25;;;;;;;12.87;100.00;99278.66;5041285;28;20032;-74
2022/10/21 06:32:56;;;;;;;11.25;2.10;;;;;;;12.87;100.00;99284.22;4991195;28;20041;-74
2022/10/21 06:35:21;;;;;;;13.23;2.28;;;;;;;12.85;100.00;99290.16;5029832;28;20029;-74
2022/10/21 06:37:46;;;;;;;13.90;2.10;;;;;;;12.86;100.00;99302.09;5014708;28;20398;-74
2022/10/21 06:40:12;;;;;;;13.68;1.90;;;;;;;12.83;100.00;99298.03;4996874;28;20026;-74
2022/10/21 06:42:37;;;;;;;11.85;2.08;;;;;;;12.82;100.00;99295.59;5014345;28;20029;-74
2022/10/21 06:45:03;;;;;;;16.92;2.60;;;;;;;12.84;100.00;99299.66;5024376;28;20025;-74
2022/10/21 06:47:29;;;;;;;17.27;2.25;;;;;;;12.83;100.00;99308.34;5003972;28;20032;-75
2022/10/21 06:49:54;;;;;;;15.60;2.47;;;;;;;12.82;100.00;99307.53;5024615;28;20033;-75
2022/10/21 06:52:20;;;;;;;10.80;2.08;;;;;;;12.83;100.00;99313.94;5023600;28;20025;-75
2022/10/21 06:54:45;;;;;;;8.60;1.98;;;;;;;12.82;100.00;99329.03;5031965;28;20033;-75
2022/10/21 06:57:11;;;;;;;10.45;1.80;;;;;;;12.83;100.00;99325.88;5001664;28;20503;-74
2022/10/21 06:59:36;;;;;;;15.18;2.45;;;;;;;12.86;100.00;99330.78;4995121;28;20051;-75
2022/10/21 07:02:02;;;;;;;16.02;2.17;;;;;;;12.86;100.00;99325.19;4994485;28;20053;-76
2022/10/21 07:04:28;;;;;;;14.30;2.58;;;;;;;12.88;100.00;99322.09;5001132;28;20084;-75
2022/10/21 07:06:53;;;;;;;15.52;2.55;;;;;;;12.90;100.00;99328.16;4999864;28;20030;-75
2022/10/21 07:09:19;;;;;;;14.98;2.35;;;;;;;12.91;100.00;99322.22;5030765;28;20037;-75
2022/10/21 07:11:44;;;;;;;15.63;2.30;;;;;;;12.95;100.00;99312.03;5019279;28;20029;-75
2022/10/21 07:14:11;;;;;;;13.82;2.55;;;;;;;12.97;100.00;99320.03;4962747;28;20057;-75
2022/10/21 07:16:36;;;;;;;14.98;1.65;;;;;;;13.00;100.00;99322.16;5001201;28;20470;-75
2022/10/21 07:19:03;;;;;;;18.38;2.75;;;;;;;13.05;100.00;99323.94;5000636;28;20080;-75
2022/10/21 07:21:29;;;;;;;17.30;2.50;;;;;;;13.07;100.00;99327.22;5012134;28;20040;-75
2022/10/21 07:23:55;;;;;;;15.13;2.80;;;;;;;13.12;100.00;99338.13;5027690;28;20036;-75
2022/10/21 07:26:21;;;;;;;20.35;3.00;;;;;;;13.18;100.00;99342.38;4999258;28;20030;-74
2022/10/21 07:28:46;;;;;;;16.55;2.85;;;;;;;13.24;100.00;99351.34;5008322;28;20025;-75
2022/10/21 07:31:16;;;;;;;18.50;2.60;;;;;;;13.30;100.00;99352.78;5013274;28;20025;-75
2022/10/21 07:33:41;;;;;;;19.40;2.80;;;;;;;13.36;100.00;99351.44;5005025;28;20034;-75
2022/10/21 07:36:18;;;;;;;18.30;2.33;;;;;;;13.41;100.00;99363.19;5013016;28;20084;-74
2022/10/21 07:38:45;;;;;;;19.10;2.97;;;;;;;13.47;100.00;99365.78;5029546;28;20028;-75
2022/10/21 07:41:21;;;;;;;17.63;2.95;;;;;;;13.53;100.00;99368.00;4990595;28;20040;-75
2022/10/21 07:43:47;;;;;;;19.33;2.95;;;;;;;13.60;100.00;99371.06;4998697;28;20035;-75
2022/10/21 07:46:12;;;;;;;20.67;3.30;;;;;;;13.68;100.00;99361.00;5001556;28;20061;-75
2022/10/21 07:48:38;;;;;;;22.90;3.05;;;;;;;13.75;100.00;99361.25;4983645;28;20029;-75
2022/10/21 07:51:11;;;;;;;28.73;4.20;;;;;;;13.83;100.00;99367.91;5040940;28;20040;-76
2022/10/21 07:53:37;;;;;;;22.45;3.67;;;;;;;13.90;100.00;99379.34;5007532;28;20033;-75
2022/10/21 07:56:13;;;;;;;23.55;3.83;;;;;;;13.98;100.00;99378.41;4999281;28;20483;-75
2022/10/21 07:58:39;;;;;;;18.08;2.40;;;;;;;14.04;100.00;99376.22;5000429;28;20427;-76
2022/10/21 08:01:05;;;;;;;22.55;3.95;;;;;;;14.11;100.00;99384.84;5011005;28;20065;-75
2022/10/21 08:03:30;;;;;;;26.55;2.95;;;;;;;14.18;100.00;99384.28;4985569;28;20719;-75
2022/10/21 08:05:56;;;;;;;22.60;3.63;;;;;;;14.23;100.00;99381.25;5000259;28;20059;-75
2022/10/21 08:08:22;;;;;;;28.50;3.75;;;;;;;14.29;100.00;99391.03;4994739;28;20095;-75
2022/10/21 08:10:48;;;;;;;23.83;3.53;;;;;;;14.34;100.00;99399.19;5008361;28;20040;-75
2022/10/21 08:13:14;;;;;;;27.50;4.45;;;;;;;14.36;100.00;99402.47;4977952;28;20022;-75
2022/10/21 08:15:43;;;;;;;27.95;4.25;;;;;;;14.40;100.00;99397.00;5015917;28;20075;-75
2022/10/21 08:18:09;;;;;;;28.83;3.40;;;;;;;14.43;100.00;99399.09;5015160;28;20079;-74
2022/10/21 08:20:38;;;;;;;25.73;4.18;;;;;;;14.45;100.00;99397.59;5019599;28;20029;-75
2022/10/21 08:23:03;;;;;;;29.30;3.72;;;;;;;14.48;100.00;99399.69;4999648;28;20083;-75
2022/10/21 08:25:29;;;;;;;27.60;3.67;;;;;;;14.51;100.00;99392.59;5008807;28;20029;-75
2022/10/21 08:27:54;;;;;;;29.10;4.15;;;;;;;14.55;100.00;99392.75;4991562;28;20561;-75
2022/10/21 08:30:20;;;;;;;28.20;3.72;;;;;;;14.58;100.00;99394.84;5015249;28;20030;-75
2022/10/21 08:32:46;;;;;;;28.42;3.72;;;;;;;14.59;100.00;99397.28;5029573;28;20112;-75
2022/10/21 08:35:11;;;;;;;24.38;3.53;;;;;;;14.62;100.00;99401.38;5012006;28;20036;-75
2022/10/21 08:37:37;;;;;;;32.22;4.65;;;;;;;14.65;100.00;99400.66;4999157;28;20025;-75
2022/10/21 08:40:03;;;;;;;24.60;3.80;;;;;;;14.68;100.00;99403.59;5042051;28;20033;-75
2022/10/21 08:42:29;;;;;;;27.88;3.90;;;;;;;14.70;100.00;99412.44;5005245;28;20028;-75
2022/10/21 08:44:57;;;;;;;29.15;4.15;;;;;;;14.72;100.00;99403.72;5018306;28;20034;-75
2022/10/21 08:47:44;;;;;;;27.52;4.05;;;;;;;14.77;100.00;99402.69;4994557;28;20092;-75
2022/10/21 08:50:20;;;;;;;28.67;4.43;;;;;;;14.80;100.00;99405.59;5014559;28;20025;-75
2022/10/21 08:52:48;;;;;;;31.67;4.78;;;;;;;14.84;100.00;99412.09;5024596;28;20025;-75
2022/10/21 08:55:22;;;;;;;24.85;3.53;;;;;;;14.90;100.00;99413.47;5002304;28;20460;-75
2022/10/21 08:57:48;;;;;;;26.88;3.95;;;;;;;14.97;100.00;99427.69;5015010;28;20025;-75
2022/10/21 09:00:19;;;;;;;29.92;4.53;;;;;;;15.06;100.00;99412.78;5015080;28;20029;-75
2022/10/21 09:02:58;;;;;;;34.03;4.38;;;;;;;15.17;100.00;99402.75;4999027;28;20026;-75
2022/10/21 09:05:47;;;;;;;27.00;3.97;;;;;;;15.29;100.00;99418.69;5031524;28;20387;-75
2022/10/21 09:08:42;;;;;;;30.38;4.55;;;;;;;15.39;100.00;99419.03;4993021;28;20041;-75
2022/10/21 09:11:23;;;;;;;28.00;5.07;;;;;;;15.52;100.00;99410.63;5003622;28;20026;-75
2022/10/21 09:14:15;;;;;;;27.25;4.10;;;;;;;15.63;100.00;99406.16;5022368;28;20068;-76
2022/10/21 09:17:02;;;;;;;26.55;4.50;;;;;;;15.73;100.00;99402.88;5047359;28;20029;-75
2022/10/21 09:19:43;;;;;;;30.00;4.45;;;;;;;15.83;100.00;99396.78;5009643;28;20037;-75
2022/10/21 09:22:30;;;;;;;29.65;3.72;;;;;;;15.94;100.00;99407.47;5031430;28;20033;-75
2022/10/21 09:24:57;;;;;;;32.38;4.45;;;;;;;16.04;100.00;99401.34;5048973;28;20028;-75
2022/10/21 09:27:23;;;;;;;29.92;4.65;;;;;;;16.13;100.00;99417.97;5014624;28;20038;-75
2022/10/21 09:29:59;;;;;;;36.05;5.72;;;;;;;16.23;100.00;99398.66;5017377;28;20525;-74
2022/10/21 09:32:32;;;;;;;31.15;3.95;;;;;;;16.30;100.00;99404.47;5009591;28;20102;-75
2022/10/21 09:35:56;;;;;;;34.15;5.20;;;;;;;16.42;100.00;99411.16;4996858;28;20054;-75
2022/10/21 09:38:28;;;;;;;31.77;5.03;;;;;;;16.57;100.00;99401.94;4980895;28;20045;-75
2022/10/21 09:40:59;;;;;;;29.27;4.75;;;;;;;16.70;100.00;99423.09;5006301;28;20547;-75
2022/10/21 09:43:25;;;;;;;27.65;4.40;;;;;;;16.80;100.00;99406.94;4997978;28;20030;-75
2022/10/21 09:45:51;;;;;;;27.83;4.40;;;;;;;16.89;100.00;99407.59;5010847;28;20029;-75
2022/10/21 09:48:16;;;;;;;27.10;3.78;;;;;;;16.99;100.00;99412.63;5018534;28;20029;-75
2022/10/21 09:50:41;;;;;;;31.88;4.30;;;;;;;17.06;100.00;99418.41;5016249;28;20125;-75
2022/10/21 09:53:16;;;;;;;24.05;3.92;;;;;;;17.13;100.00;99420.56;5042357;28;20028;-75
2022/10/21 09:55:46;;;;;;;23.58;4.00;;;;;;;17.21;100.00;99413.94;5025338;28;20045;-75
2022/10/21 09:58:29;;;;;;;30.55;4.22;;;;;;;17.32;100.00;99414.19;5027816;28;20521;-75
2022/10/21 10:00:55;;;;;;;22.33;3.45;;;;;;;17.41;100.00;99417.59;4997695;28;20026;-75
2022/10/21 10:03:31;;;;;;;23.73;3.67;;;;;;;17.53;100.00;99400.66;4990521;28;20041;-75
2022/10/21 10:05:56;;;;;;;29.80;4.13;;;;;;;17.67;100.00;99405.75;4996543;28;20094;-75
2022/10/21 10:08:28;;;;;;;25.80;4.45;;;;;;;17.77;100.00;99415.56;4997971;28;20088;-75
2022/10/21 10:11:04;;;;;;;22.60;4.00;;;;;;;17.84;100.00;99413.78;5014871;28;20030;-75
2022/10/21 10:13:30;;;;;;;25.27;3.63;;;;;;;17.95;100.00;99404.75;4986274;28;20034;-74
2022/10/21 10:16:11;;;;;;;28.00;4.00;;;;;;;18.05;100.00;99402.16;5025239;28;20116;-75
2022/10/21 10:18:37;;;;;;;31.13;4.50;;;;;;;18.16;100.00;99387.50;5020290;28;20159;-74
2022/10/21 10:21:08;;;;;;;26.05;4.50;;;;;;;18.26;100.00;99393.31;5033924;28;20033;-75
2022/10/21 10:24:16;;;;;;;25.38;3.60;;;;;;;18.41;100.00;99385.94;4978446;28;20028;-74
2022/10/21 10:26:41;;;;;;;24.58;3.40;;;;;;;18.54;100.00;99364.09;5031111;28;20033;-75
2022/10/21 10:29:26;;;;;;;23.13;3.92;;;;;;;18.64;100.00;99376.72;5000380;28;20386;-74
2022/10/21 10:31:56;;;;;;;21.00;3.40;;;;;;;18.73;100.00;99363.22;4998207;28;20120;-75
2022/10/21 10:34:33;;;;;;;23.67;4.13;;;;;;;18.86;100.00;99361.84;5016438;28;20513;-75
2022/10/21 10:37:15;;;;;;;25.00;3.92;;;;;;;18.96;97.69;99375.25;5007813;28;20032;-74
2022/10/21 10:39:40;;;;;;;20.35;3.13;;;;;;;19.06;98.96;99370.19;5000801;28;20050;-75
2022/10/21 10:42:06;;;;;;;20.05;3.30;;;;;;;19.13;97.44;99378.72;5003239;28;20064;-75
2022/10/21 10:44:39;;;;;;;23.00;3.50;;;;;;;19.23;97.85;99369.63;4999662;28;20471;-75
2022/10/21 10:47:06;;;;;;;20.05;2.70;;;;;;;19.35;95.93;99386.28;5003390;28;20044;-75
2022/10/21 10:49:37;;;;;;;16.33;2.92;;;;;;;19.47;93.98;99382.41;4999395;28;20082;-75
2022/10/21 10:52:04;;;;;;;21.63;3.30;;;;;;;19.58;90.99;99360.84;5016331;28;20537;-75
2022/10/21 10:54:29;;;;;;;14.77;2.38;;;;;;;19.68;89.25;99372.69;5014049;28;20038;-75
2022/10/21 10:57:04;;;;;;;20.45;3.22;;;;;;;19.70;87.36;99395.66;5006304;28;20644;-77
2022/10/21 10:59:43;;;;;;;19.90;3.65;;;;;;;19.71;84.72;99386.78;5019627;28;20112;-74
2022/10/21 11:02:09;;;;;;;18.65;2.58;;;;;;;19.74;86.88;99386.03;5019401;28;20033;-76
2022/10/21 11:04:36;;;;;;;15.70;2.85;;;;;;;19.77;87.99;99376.81;5026398;28;20024;-75
2022/10/21 11:07:26;;;;;;;16.30;2.55;;;;;;;19.81;86.36;99380.50;5014795;28;20056;-74
2022/10/21 11:09:52;;;;;;;18.95;2.95;;;;;;;19.91;84.84;99369.72;5018408;28;20045;-75
2022/10/21 11:12:21;;;;;;;16.80;2.38;;;;;;;19.99;83.30;99372.25;5025412;28;20104;-75
2022/10/21 11:14:52;;;;;;;21.95;3.42;;;;;;;20.05;83.29;99373.50;4985817;28;20482;-75
2022/10/21 11:17:25;;;;;;;17.20;2.60;;;;;;;20.11;82.48;99378.81;5003341;28;20665;-75
2022/10/21 11:20:11;;;;;;;18.42;2.92;;;;;;;20.15;80.63;99369.19;5022332;28;20033;-75
2022/10/21 11:22:48;;;;;;;13.80;3.03;;;;;;;20.19;81.63;99375.66;5032318;28;20101;-74
2022/10/21 11:25:18;;;;;;;14.57;2.42;;;;;;;20.17;79.39;99377.25;5022535;28;20034;-73
2022/10/21 11:28:05;;;;;;;19.13;2.65;;;;;;;20.21;77.66;99390.19;5003751;28;20413;-73